Time;durP1;ratioP1;P1;durP2;ratioP2;P2;SDS_P1;SDS_P2;PMS_P1;PMS_P2;Temp;Humidity;BMP_temperature;BMP_pressure;BME280_temperature;BME280_humidity;BME280_pressure;Samples;Min_cycle;Max_cycle;Signal;HPM_P1;HPM_P2
2022/10/11 00:00:20;;;;;;;0.30;0.30;;;;;;;9.73;77.80;102416.06;2085663;28;20060;-72
2022/10/11 00:01:22;;;;;;;0.30;0.30;;;;;;;9.72;78.19;102415.25;2076326;28;20640;-71
2022/10/11 00:02:26;;;;;;;0.30;0.30;;;;;;;9.72;78.18;102412.56;2077664;28;20143;-71
2022/10/11 00:03:28;;;;;;;0.40;0.40;;;;;;;9.71;77.96;102410.97;2086689;28;20060;-71
2022/10/11 00:04:31;;;;;;;0.30;0.30;;;;;;;9.71;78.13;102415.56;2084423;28;20052;-71
2022/10/11 00:05:34;;;;;;;0.30;0.30;;;;;;;9.70;77.01;102416.66;2076900;28;20053;-71
2022/10/11 00:06:38;;;;;;;0.30;0.30;;;;;;;9.70;77.14;102416.66;2077871;28;20604;-72
2022/10/11 00:07:42;;;;;;;0.30;0.30;;;;;;;9.70;77.96;102413.97;2077023;28;20763;-71
2022/10/11 00:08:45;;;;;;;0.30;0.30;;;;;;;9.67;77.90;102409.94;2077016;28;20744;-72
2022/10/11 00:09:48;;;;;;;0.40;0.40;;;;;;;9.68;77.13;102416.94;2085610;28;20071;-72
2022/10/11 00:10:59;;;;;;;0.30;0.30;;;;;;;9.66;78.56;102408.34;2076549;28;20057;-72
2022/10/11 00:12:02;;;;;;;0.30;0.30;;;;;;;9.67;77.38;102420.72;2070326;28;20053;-73
2022/10/11 00:13:06;;;;;;;0.30;0.30;;;;;;;9.67;77.71;102415.34;2077267;28;20452;-71
2022/10/11 00:14:08;;;;;;;0.30;0.30;;;;;;;9.66;78.40;102419.13;2084699;28;20643;-72
2022/10/11 00:15:14;;;;;;;0.30;0.30;;;;;;;9.68;77.99;102421.53;2085760;28;20530;-72
2022/10/11 00:16:17;;;;;;;0.40;0.40;;;;;;;9.63;77.79;102422.44;2085193;28;20709;-71
2022/10/11 00:17:21;;;;;;;0.30;0.30;;;;;;;9.64;77.83;102425.94;2084685;28;20096;-71
2022/10/11 00:18:24;;;;;;;0.30;0.30;;;;;;;9.64;77.89;102421.31;2085690;28;20052;-72
2022/10/11 00:19:27;;;;;;;0.20;0.20;;;;;;;9.60;77.78;102420.31;2084798;28;20049;-72
2022/10/11 00:20:29;;;;;;;0.30;0.30;;;;;;;9.61;78.49;102429.22;2085775;28;20057;-71
2022/10/11 00:21:33;;;;;;;0.30;0.30;;;;;;;9.62;78.40;102430.81;2083465;28;20057;-71
2022/10/11 00:22:36;;;;;;;0.30;0.30;;;;;;;9.61;77.97;102435.41;2084168;28;20091;-72
2022/10/11 00:23:41;;;;;;;0.25;0.25;;;;;;;9.61;76.93;102438.09;2082370;28;20769;-71
2022/10/11 00:24:43;;;;;;;0.20;0.20;;;;;;;9.57;77.16;102431.69;2086622;28;20102;-71
2022/10/11 00:25:56;;;;;;;0.25;0.25;;;;;;;9.53;77.86;102436.06;2085798;28;20084;-71
2022/10/11 00:27:00;;;;;;;0.30;0.30;;;;;;;9.50;78.45;102427.78;2084622;28;20665;-71
2022/10/11 00:28:02;;;;;;;0.30;0.30;;;;;;;9.50;77.51;102433.97;2084054;28;20065;-71
2022/10/11 00:29:06;;;;;;;0.30;0.30;;;;;;;9.49;77.74;102435.06;2085716;28;20061;-71
2022/10/11 00:30:10;;;;;;;0.30;0.30;;;;;;;9.50;77.78;102436.66;2084060;28;20104;-71
2022/10/11 00:31:15;;;;;;;0.30;0.30;;;;;;;9.49;77.73;102431.56;2083145;28;20049;-71
2022/10/11 00:32:18;;;;;;;0.30;0.30;;;;;;;9.48;78.32;102427.28;2083165;28;20512;-72
2022/10/11 00:33:21;;;;;;;0.30;0.30;;;;;;;9.49;78.26;102447.72;2083156;28;20053;-71
2022/10/11 00:34:24;;;;;;;0.30;0.30;;;;;;;9.49;78.56;102437.75;2084231;28;20045;-72
2022/10/11 00:35:27;;;;;;;0.30;0.30;;;;;;;9.49;77.30;102440.47;2074678;28;20141;-72
2022/10/11 00:36:30;;;;;;;0.30;0.30;;;;;;;9.45;78.97;102441.34;2067892;28;20057;-72
2022/10/11 00:37:36;;;;;;;0.20;0.20;;;;;;;9.47;78.76;102450.72;2076007;28;20068;-72
2022/10/11 00:38:42;;;;;;;0.30;0.30;;;;;;;9.48;78.47;102440.75;2083427;28;20547;-72
2022/10/11 00:39:47;;;;;;;0.30;0.30;;;;;;;9.49;78.13;102440.47;2068447;28;20465;-70
2022/10/11 00:40:49;;;;;;;0.22;0.22;;;;;;;9.50;78.59;102442.03;2069311;28;20414;-72
2022/10/11 00:41:53;;;;;;;0.30;0.30;;;;;;;9.50;77.70;102443.97;2074875;28;20053;-72
2022/10/11 00:42:55;;;;;;;0.30;0.30;;;;;;;9.49;79.17;102450.44;2075869;28;20402;-71
2022/10/11 00:44:17;;;;;;;0.30;0.30;;;;;;;9.43;78.76;102444.34;2083611;28;20053;-71
2022/10/11 00:45:52;;;;;;;0.30;0.30;;;;;;;9.41;79.21;102445.69;2084557;28;20120;-71
2022/10/11 00:47:00;;;;;;;0.30;0.30;;;;;;;9.42;78.25;102448.09;2078041;28;20053;-71
2022/10/11 00:48:10;;;;;;;0.30;0.30;;;;;;;9.43;78.83;102452.41;2083906;28;20068;-72
2022/10/11 00:49:19;;;;;;;0.30;0.30;;;;;;;9.44;78.09;102445.13;2066493;28;20042;-71
2022/10/11 00:50:23;;;;;;;0.30;0.30;;;;;;;9.46;78.36;102441.06;2070075;28;20112;-72
2022/10/11 00:51:37;;;;;;;0.30;0.30;;;;;;;9.44;78.93;102443.22;2085008;28;21049;-73
2022/10/11 00:52:42;;;;;;;0.30;0.30;;;;;;;9.45;78.88;102449.44;2077740;28;20999;-71
2022/10/11 00:53:49;;;;;;;0.30;0.30;;;;;;;9.46;78.30;102449.13;2077539;28;20242;-72
2022/10/11 00:54:53;;;;;;;0.30;0.30;;;;;;;9.45;79.37;102439.44;2088077;28;20059;-71
2022/10/11 00:56:01;;;;;;;0.30;0.30;;;;;;;9.46;79.33;102446.44;2085672;28;20045;-72
2022/10/11 00:57:08;;;;;;;0.30;0.30;;;;;;;9.47;79.54;102447.22;2086528;28;20049;-72
2022/10/11 00:58:11;;;;;;;0.20;0.20;;;;;;;9.48;78.64;102449.63;2086671;28;20127;-72
2022/10/11 00:59:21;;;;;;;0.28;0.28;;;;;;;9.48;78.52;102441.53;2086194;28;20670;-72
2022/10/11 01:00:24;;;;;;;0.30;0.30;;;;;;;9.47;77.94;102436.44;2086088;28;20084;-72
2022/10/11 01:01:27;;;;;;;0.30;0.30;;;;;;;9.48;78.11;102441.53;2085279;28;20053;-72
2022/10/11 01:02:30;;;;;;;0.20;0.20;;;;;;;9.47;79.53;102448.03;2077546;28;20096;-72
2022/10/11 01:03:36;;;;;;;0.20;0.20;;;;;;;9.47;78.76;102439.94;2077302;28;20084;-72
2022/10/11 01:04:40;;;;;;;0.30;0.30;;;;;;;9.45;79.18;102449.44;2085650;28;21141;-72
2022/10/11 01:05:43;;;;;;;0.20;0.20;;;;;;;9.46;78.92;102453.72;2078889;28;20053;-72
2022/10/11 01:06:48;;;;;;;0.28;0.28;;;;;;;9.43;78.01;102452.41;2086048;28;20129;-72
2022/10/11 01:07:52;;;;;;;0.30;0.30;;;;;;;9.41;79.46;102449.22;2075808;28;20050;-72
2022/10/11 01:08:57;;;;;;;0.30;0.30;;;;;;;9.41;79.02;102451.09;2077833;28;20528;-72
2022/10/11 01:09:59;;;;;;;0.30;0.30;;;;;;;9.38;78.96;102449.78;2085057;28;20060;-71
2022/10/11 01:11:03;;;;;;;0.30;0.30;;;;;;;9.38;79.00;102455.19;2085808;28;20242;-71
2022/10/11 01:12:15;;;;;;;0.30;0.30;;;;;;;9.34;78.30;102459.53;2084064;28;20053;-72
2022/10/11 01:13:27;;;;;;;0.20;0.20;;;;;;;9.30;78.35;102452.34;2082449;28;20056;-71
2022/10/11 01:14:54;;;;;;;0.30;0.30;;;;;;;9.24;79.40;102450.81;2083758;28;20064;-71
2022/10/11 01:16:05;;;;;;;0.30;0.30;;;;;;;9.25;78.26;102455.91;2084738;28;20057;-72
2022/10/11 01:17:20;;;;;;;0.20;0.20;;;;;;;9.24;78.38;102448.13;2077046;28;20529;-71
2022/10/11 01:18:30;;;;;;;0.30;0.30;;;;;;;9.23;78.70;102447.31;2079594;28;20046;-72
2022/10/11 01:19:52;;;;;;;0.30;0.30;;;;;;;9.21;78.91;102446.84;2086114;28;20060;-71
2022/10/11 01:21:06;;;;;;;0.30;0.30;;;;;;;9.21;78.82;102454.91;2069081;28;20513;-72
2022/10/11 01:22:25;;;;;;;0.30;0.30;;;;;;;9.21;78.79;102457.59;2070844;28;20972;-72
2022/10/11 01:23:56;;;;;;;0.30;0.30;;;;;;;9.18;78.25;102460.06;2077659;28;20394;-72
2022/10/11 01:25:18;;;;;;;0.30;0.30;;;;;;;9.16;78.31;102456.88;2065467;28;20069;-72
2022/10/11 01:26:40;;;;;;;0.20;0.20;;;;;;;9.15;78.31;102460.66;2073396;28;20058;-72
2022/10/11 01:27:56;;;;;;;0.30;0.30;;;;;;;9.13;78.84;102456.34;2072341;28;20046;-72
2022/10/11 01:29:09;;;;;;;0.30;0.30;;;;;;;9.16;79.37;102454.97;2078931;28;20139;-71
2022/10/11 01:30:25;;;;;;;0.30;0.30;;;;;;;9.13;78.64;102446.66;2078920;28;20049;-72
2022/10/11 01:31:35;;;;;;;0.30;0.30;;;;;;;9.16;78.50;102456.88;2077296;28;20049;-72
2022/10/11 01:32:43;;;;;;;0.30;0.30;;;;;;;9.16;79.08;102452.28;2070971;28;20117;-72
2022/10/11 01:33:50;;;;;;;0.30;0.30;;;;;;;9.15;78.56;102450.66;2063415;28;20111;-71
2022/10/11 01:34:58;;;;;;;0.20;0.20;;;;;;;9.15;79.00;102456.06;2069046;28;20057;-72
2022/10/11 01:36:08;;;;;;;0.22;0.22;;;;;;;9.14;79.25;102459.84;2078367;28;20049;-71
2022/10/11 01:37:17;;;;;;;;;;;;;;;9.01;79.13;102460.56;2070606;28;20062;-72
2022/10/11 01:38:32;;;;;;;0.30;0.30;;;;;;;9.05;78.84;102462.38;2070774;28;19993;-72
2022/10/11 01:39:39;;;;;;;0.30;0.30;;;;;;;9.07;78.70;102471.00;2079287;28;20390;-71
2022/10/11 01:40:48;;;;;;;0.30;0.30;;;;;;;9.08;78.56;102455.63;2069655;28;20548;-72
2022/10/11 01:41:56;;;;;;;0.20;0.20;;;;;;;9.06;78.86;102455.94;2069635;28;20056;-71
2022/10/11 01:43:00;;;;;;;0.30;0.30;;;;;;;9.07;78.75;102460.22;2072655;28;20670;-71
2022/10/11 01:44:06;;;;;;;0.30;0.30;;;;;;;9.08;78.54;102455.63;2067704;28;20090;-71
2022/10/11 01:45:13;;;;;;;0.20;0.20;;;;;;;9.07;78.24;102459.41;2070687;28;20129;-72
2022/10/11 01:46:21;;;;;;;0.30;0.30;;;;;;;9.06;77.64;102463.19;2076653;28;20053;-72
2022/10/11 01:47:24;;;;;;;0.28;0.28;;;;;;;9.06;79.37;102468.59;2077482;28;20046;-71
2022/10/11 01:48:28;;;;;;;0.20;0.20;;;;;;;9.05;78.38;102467.00;2078535;28;20080;-71
2022/10/11 01:49:30;;;;;;;0.30;0.30;;;;;;;9.04;78.74;102471.56;2079640;28;20152;-71
2022/10/11 01:50:39;;;;;;;0.30;0.30;;;;;;;9.03;79.23;102471.88;2068382;28;20061;-71
2022/10/11 01:51:44;;;;;;;0.30;0.30;;;;;;;9.02;79.17;102467.56;2069363;28;20046;-72
2022/10/11 01:52:50;;;;;;;0.20;0.20;;;;;;;8.99;78.13;102465.47;2069913;28;20108;-72
2022/10/11 01:54:10;;;;;;;0.20;0.20;;;;;;;8.97;78.63;102467.63;2075906;28;20052;-71
2022/10/11 01:55:21;;;;;;;0.30;0.30;;;;;;;8.93;77.73;102466.59;2069448;28;20063;-71
2022/10/11 01:57:03;;;;;;;0.30;0.30;;;;;;;8.90;78.45;102459.09;2062337;28;20058;-72
2022/10/11 01:58:16;;;;;;;0.20;0.20;;;;;;;8.88;78.14;102472.03;2062141;28;20386;-71
2022/10/11 01:59:31;;;;;;;0.30;0.30;;;;;;;8.89;78.69;102473.66;2072776;28;20057;-71
2022/10/11 02:00:45;;;;;;;0.30;0.30;;;;;;;8.87;78.57;102482.03;2077905;28;20246;-72
2022/10/11 02:02:05;;;;;;;0.30;0.30;;;;;;;8.86;78.23;102479.63;2068495;28;20045;-72
2022/10/11 02:03:21;;;;;;;0.20;0.20;;;;;;;8.86;78.80;102476.94;2063753;28;20066;-72
2022/10/11 02:04:32;;;;;;;0.22;0.22;;;;;;;8.86;78.61;102472.34;2070692;28;20462;-72
2022/10/11 02:05:42;;;;;;;0.28;0.28;;;;;;;8.88;78.00;102477.44;2078781;28;20056;-71
2022/10/11 02:06:52;;;;;;;0.25;0.25;;;;;;;8.87;79.03;102475.84;2078523;28;20053;-73
2022/10/11 02:08:03;;;;;;;0.30;0.30;;;;;;;8.87;79.26;102481.22;2077569;28;20150;-72
2022/10/11 02:09:13;;;;;;;0.20;0.20;;;;;;;8.86;79.17;102476.94;2079007;28;20335;-71
2022/10/11 02:10:26;;;;;;;0.30;0.30;;;;;;;8.84;79.05;102482.63;2078572;28;20111;-72
2022/10/11 02:11:31;;;;;;;0.28;0.28;;;;;;;8.84;79.34;102479.13;2075868;28;20434;-71
2022/10/11 02:12:39;;;;;;;0.30;0.30;;;;;;;8.84;78.27;102477.22;2074105;28;20054;-72
2022/10/11 02:13:47;;;;;;;0.20;0.20;;;;;;;8.83;78.88;102477.53;2077979;28;20060;-72
2022/10/11 02:14:54;;;;;;;0.30;0.30;;;;;;;8.84;79.15;102479.13;2077716;28;20768;-72
2022/10/11 02:16:00;;;;;;;0.20;0.20;;;;;;;8.83;78.56;102475.59;2077930;28;20055;-72
2022/10/11 02:17:11;;;;;;;0.30;0.30;;;;;;;8.82;78.44;102474.03;2077452;28;20069;-72
2022/10/11 02:18:18;;;;;;;0.30;0.30;;;;;;;8.82;79.00;102483.97;2078019;28;20050;-72
2022/10/11 02:19:27;;;;;;;0.20;0.20;;;;;;;8.83;79.36;102478.31;2069044;28;20054;-72
2022/10/11 02:20:34;;;;;;;0.30;0.30;;;;;;;8.83;78.95;102474.81;2074156;28;20061;-72
2022/10/11 02:21:41;;;;;;;0.30;0.30;;;;;;;8.82;78.88;102478.59;2085502;28;20056;-72
2022/10/11 02:22:50;;;;;;;0.20;0.20;;;;;;;8.81;78.14;102485.06;2076806;28;20049;-71
2022/10/11 02:23:58;;;;;;;0.20;0.20;;;;;;;8.79;78.55;102482.69;2076256;28;20724;-72
2022/10/11 02:25:08;;;;;;;0.30;0.30;;;;;;;8.79;79.22;102484.56;2076610;28;20064;-72
2022/10/11 02:26:12;;;;;;;0.30;0.30;;;;;;;8.76;78.83;102479.75;2068699;28;20089;-72
2022/10/11 02:27:20;;;;;;;0.20;0.20;;;;;;;8.75;79.23;102478.16;2068067;28;20141;-71
2022/10/11 02:28:27;;;;;;;0.30;0.30;;;;;;;8.75;78.86;102478.16;2079160;28;20063;-72
2022/10/11 02:29:34;;;;;;;0.30;0.30;;;;;;;8.74;78.15;102476.53;2087683;28;20095;-72
2022/10/11 02:30:37;;;;;;;0.30;0.30;;;;;;;8.73;78.76;102478.44;2076000;28;20045;-73
2022/10/11 02:31:44;;;;;;;0.30;0.30;;;;;;;8.73;78.33;102481.13;2077285;28;20077;-71
2022/10/11 02:32:50;;;;;;;0.30;0.30;;;;;;;8.74;78.68;102484.63;2084915;28;20092;-72
2022/10/11 02:34:00;;;;;;;0.30;0.30;;;;;;;8.74;78.72;102487.31;2076974;28;20063;-73
2022/10/11 02:35:03;;;;;;;0.30;0.30;;;;;;;8.74;79.02;102481.91;2078755;28;20068;-70
2022/10/11 02:36:14;;;;;;;0.30;0.30;;;;;;;8.76;78.88;102487.81;2085407;28;20061;-71
2022/10/11 02:37:19;;;;;;;;;;;;;;;8.63;79.24;102485.81;2086441;28;20424;-72
2022/10/11 02:38:26;;;;;;;0.30;0.30;;;;;;;8.67;78.44;102490.34;2086186;28;19925;-72
2022/10/11 02:39:38;;;;;;;0.30;0.30;;;;;;;8.69;79.14;102490.06;2077821;28;20707;-71
2022/10/11 02:40:46;;;;;;;0.30;0.30;;;;;;;8.68;79.38;102488.47;2070181;28;20054;-72
2022/10/11 02:41:51;;;;;;;0.30;0.30;;;;;;;8.68;79.25;102483.06;2077555;28;20688;-72
2022/10/11 02:43:00;;;;;;;0.30;0.30;;;;;;;8.69;78.93;102490.06;2084274;28;20049;-72
2022/10/11 02:44:06;;;;;;;0.30;0.30;;;;;;;8.68;78.99;102477.69;2086075;28;20057;-72
2022/10/11 02:45:15;;;;;;;0.20;0.20;;;;;;;8.68;79.59;102493.84;2076932;28;20460;-70
2022/10/11 02:46:17;;;;;;;0.30;0.30;;;;;;;8.67;79.33;102489.56;2070496;28;20045;-69
2022/10/11 02:47:21;;;;;;;0.30;0.30;;;;;;;8.67;78.76;102494.94;2078135;28;20053;-70
2022/10/11 02:48:27;;;;;;;0.30;0.30;;;;;;;8.67;78.65;102494.94;2086312;28;20586;-69
2022/10/11 02:49:32;;;;;;;0.40;0.40;;;;;;;8.64;78.70;102490.13;2087402;28;20107;-69
2022/10/11 02:50:34;;;;;;;0.40;0.40;;;;;;;8.62;79.46;102492.31;2084326;28;20057;-69
2022/10/11 02:51:39;;;;;;;0.40;0.40;;;;;;;8.62;78.90;102492.31;2086108;28;20065;-69
2022/10/11 02:52:42;;;;;;;0.30;0.30;;;;;;;8.61;78.94;102488.03;2077064;28;20160;-69
2022/10/11 02:53:46;;;;;;;0.30;0.30;;;;;;;8.59;79.58;102487.50;2069371;28;20061;-69
2022/10/11 02:54:50;;;;;;;0.30;0.30;;;;;;;8.59;79.35;102479.44;2077013;28;20046;-69
2022/10/11 02:55:57;;;;;;;0.30;0.30;;;;;;;8.61;79.98;102482.63;2076887;28;20058;-69
2022/10/11 02:57:00;;;;;;;0.22;0.22;;;;;;;8.61;79.53;102482.63;2077644;28;20061;-69
2022/10/11 02:58:03;;;;;;;0.30;0.30;;;;;;;8.62;80.10;102486.91;2085775;28;20071;-69
2022/10/11 02:59:06;;;;;;;0.30;0.30;;;;;;;8.63;79.33;102483.13;2077451;28;20107;-70
2022/10/11 03:00:10;;;;;;;0.25;0.25;;;;;;;8.67;80.35;102484.19;2077218;28;20802;-68
2022/10/11 03:01:13;;;;;;;0.20;0.20;;;;;;;8.66;79.29;102491.44;2085178;28;20053;-68
2022/10/11 03:02:16;;;;;;;0.20;0.20;;;;;;;8.67;79.51;102486.88;2084074;28;20053;-69
2022/10/11 03:03:19;;;;;;;0.30;0.30;;;;;;;8.67;79.51;102486.88;2078006;28;20134;-68
2022/10/11 03:04:24;;;;;;;0.30;0.30;;;;;;;8.70;79.52;102487.09;2067750;28;20077;-69
2022/10/11 03:05:26;;;;;;;0.25;0.25;;;;;;;8.70;80.62;102489.78;2075828;28;20057;-69
2022/10/11 03:06:29;;;;;;;0.30;0.30;;;;;;;8.73;80.31;102486.53;2085258;28;20076;-69
2022/10/11 03:07:31;;;;;;;0.30;0.30;;;;;;;8.76;80.47;102485.13;2082531;28;20924;-68
2022/10/11 03:08:35;;;;;;;0.20;0.20;;;;;;;8.78;80.30;102493.75;2085207;28;20057;-69
2022/10/11 03:09:37;;;;;;;0.20;0.20;;;;;;;8.79;79.34;102485.38;2077258;28;20103;-69
2022/10/11 03:10:41;;;;;;;0.20;0.20;;;;;;;8.83;80.10;102491.75;2077954;28;20096;-69
2022/10/11 03:11:46;;;;;;;0.30;0.30;;;;;;;8.84;80.70;102485.31;2085397;28;20060;-70
2022/10/11 03:12:50;;;;;;;0.20;0.20;;;;;;;8.86;79.84;102485.03;2084622;28;20045;-69
2022/10/11 03:13:52;;;;;;;0.30;0.30;;;;;;;8.88;80.38;102480.13;2077174;28;20081;-69
2022/10/11 03:14:56;;;;;;;0.22;0.22;;;;;;;8.89;79.28;102484.44;2061947;28;20081;-69
2022/10/11 03:15:59;;;;;;;0.20;0.20;;;;;;;8.93;80.56;102485.44;2069794;28;20058;-69
2022/10/11 03:17:06;;;;;;;0.20;0.20;;;;;;;8.92;79.99;102483.84;2086106;28;20140;-69
2022/10/11 03:18:29;;;;;;;0.25;0.25;;;;;;;8.92;80.31;102484.66;2086774;28;20049;-69
2022/10/11 03:19:33;;;;;;;0.20;0.20;;;;;;;8.97;80.22;102483.78;2086928;28;20059;-70
2022/10/11 03:20:36;;;;;;;0.30;0.30;;;;;;;8.98;79.25;102482.69;2077121;28;20050;-68
2022/10/11 03:21:39;;;;;;;0.30;0.30;;;;;;;9.01;79.43;102493.69;2069745;28;20061;-69
2022/10/11 03:22:42;;;;;;;0.20;0.20;;;;;;;9.03;79.57;102501.50;2069589;28;20956;-69
2022/10/11 03:23:45;;;;;;;0.20;0.20;;;;;;;9.03;79.61;102493.41;2077035;28;20175;-70
2022/10/11 03:24:48;;;;;;;0.20;0.20;;;;;;;9.04;79.19;102500.38;2077672;28;20057;-68
2022/10/11 03:25:53;;;;;;;0.30;0.30;;;;;;;9.07;79.98;102497.13;2076546;28;20505;-68
2022/10/11 03:26:56;;;;;;;0.30;0.30;;;;;;;9.06;79.93;102492.81;2085224;28;20073;-70
2022/10/11 03:27:58;;;;;;;0.30;0.30;;;;;;;9.07;79.71;102497.13;2086219;28;20493;-68
2022/10/11 03:29:01;;;;;;;0.30;0.30;;;;;;;9.06;79.95;102490.94;2088015;28;20080;-70
2022/10/11 03:30:07;;;;;;;0.30;0.30;;;;;;;9.07;79.16;102497.13;2086695;28;20096;-69
2022/10/11 03:31:11;;;;;;;0.30;0.30;;;;;;;9.06;79.61;102500.91;2077914;28;20092;-69
2022/10/11 03:32:13;;;;;;;0.30;0.30;;;;;;;9.05;78.96;102505.50;2077286;28;20053;-69
2022/10/11 03:33:17;;;;;;;0.30;0.30;;;;;;;9.08;78.81;102506.81;2084991;28;20148;-70
2022/10/11 03:34:19;;;;;;;0.30;0.30;;;;;;;9.06;79.69;102500.91;2084763;28;20381;-70
2022/10/11 03:35:27;;;;;;;0.28;0.28;;;;;;;9.08;78.63;102498.75;2086011;28;20454;-69
2022/10/11 03:36:30;;;;;;;0.30;0.30;;;;;;;9.04;79.08;102497.69;2077171;28;20057;-69
2022/10/11 03:37:32;;;;;;;0.22;0.22;;;;;;;9.04;79.17;102490.44;2077184;28;20052;-69
2022/10/11 03:38:36;;;;;;;0.30;0.30;;;;;;;9.04;79.37;102500.38;2076854;28;20056;-69
2022/10/11 03:39:38;;;;;;;0.30;0.30;;;;;;;9.04;79.37;102500.38;2077782;28;20111;-70
2022/10/11 03:40:42;;;;;;;0.30;0.30;;;;;;;9.03;79.84;102501.50;2086859;28;20057;-69
2022/10/11 03:41:45;;;;;;;0.30;0.30;;;;;;;9.01;78.80;102500.97;2085640;28;20088;-70
2022/10/11 03:42:48;;;;;;;0.30;0.30;;;;;;;9.01;79.76;102500.97;2085113;28;20041;-70
2022/10/11 03:43:50;;;;;;;0.30;0.30;;;;;;;8.97;78.95;102502.66;2085465;28;20076;-70
2022/10/11 03:45:00;;;;;;;0.28;0.28;;;;;;;8.98;79.83;102515.03;2085841;28;20056;-70
2022/10/11 03:46:03;;;;;;;0.25;0.25;;;;;;;8.95;79.52;102502.13;2085283;28;20087;-67
2022/10/11 03:47:06;;;;;;;0.20;0.20;;;;;;;8.95;79.27;102499.44;2084784;28;20061;-67
2022/10/11 03:48:12;;;;;;;0.28;0.28;;;;;;;8.97;79.96;102503.44;2084131;28;20053;-68
2022/10/11 03:49:15;;;;;;;0.30;0.30;;;;;;;8.96;78.80;102501.84;2078421;28;20209;-69
2022/10/11 03:50:18;;;;;;;0.30;0.30;;;;;;;8.98;79.50;102506.94;2069131;28;20160;-69
2022/10/11 03:51:23;;;;;;;0.20;0.20;;;;;;;8.99;79.44;102509.34;2078750;28;20057;-69
2022/10/11 03:52:25;;;;;;;0.25;0.25;;;;;;;9.00;78.63;102507.47;2075091;28;20553;-69
2022/10/11 03:53:28;;;;;;;0.25;0.25;;;;;;;8.99;79.01;102513.94;2075744;28;20050;-70
2022/10/11 03:54:31;;;;;;;0.35;0.35;;;;;;;8.99;79.65;102513.94;2084569;28;20053;-69
2022/10/11 03:55:39;;;;;;;0.28;0.28;;;;;;;8.98;78.40;102515.03;2085369;28;20088;-70
2022/10/11 03:56:41;;;;;;;0.30;0.30;;;;;;;8.96;78.97;102511.81;2068594;28;20057;-69
2022/10/11 03:57:44;;;;;;;0.30;0.30;;;;;;;8.96;79.57;102514.50;2069261;28;20045;-70
2022/10/11 03:58:47;;;;;;;0.30;0.30;;;;;;;8.95;78.99;102513.72;2086494;28;20520;-69
2022/10/11 03:59:50;;;;;;;0.30;0.30;;;;;;;8.95;78.91;102511.03;2077709;28;20485;-70
2022/10/11 04:00:53;;;;;;;0.30;0.30;;;;;;;8.95;80.08;102507.53;2077405;28;20052;-70
2022/10/11 04:01:56;;;;;;;0.30;0.30;;;;;;;8.95;80.31;102515.59;2084316;28;20053;-67
2022/10/11 04:02:59;;;;;;;0.30;0.30;;;;;;;8.95;79.79;102519.09;2076396;28;20123;-68
2022/10/11 04:04:02;;;;;;;0.30;0.30;;;;;;;8.94;79.93;102514.00;2076656;28;20058;-69
2022/10/11 04:05:05;;;;;;;0.40;0.40;;;;;;;8.92;78.86;102516.19;2085612;28;20075;-68
2022/10/11 04:06:08;;;;;;;0.40;0.40;;;;;;;8.92;79.24;102514.31;2079819;28;20544;-69
2022/10/11 04:07:13;;;;;;;0.43;0.43;;;;;;;8.88;78.84;102515.94;2079177;28;20073;-69
2022/10/11 04:08:18;;;;;;;0.30;0.30;;;;;;;8.86;78.91;102518.13;2076929;28;20459;-69
2022/10/11 04:09:20;;;;;;;0.35;0.35;;;;;;;8.82;79.87;102513.59;2077571;28;21615;-69
2022/10/11 04:10:23;;;;;;;0.40;0.40;;;;;;;8.81;79.77;102512.81;2085624;28;20075;-70
2022/10/11 04:11:26;;;;;;;0.30;0.30;;;;;;;8.79;79.22;102512.28;2084198;28;20572;-69
2022/10/11 04:12:29;;;;;;;0.30;0.30;;;;;;;8.78;79.74;102520.66;2085738;28;20052;-69
2022/10/11 04:13:31;;;;;;;0.40;0.40;;;;;;;8.76;80.50;102512.06;2084592;28;20045;-69
2022/10/11 04:14:35;;;;;;;0.40;0.40;;;;;;;8.77;79.79;102513.66;2087297;28;21027;-69
2022/10/11 04:15:38;;;;;;;0.30;0.30;;;;;;;8.76;80.27;102515.56;2075989;28;20582;-69
2022/10/11 04:16:42;;;;;;;0.40;0.40;;;;;;;8.76;80.33;102517.44;2076678;28;20133;-69
2022/10/11 04:17:47;;;;;;;0.40;0.40;;;;;;;8.76;80.29;102520.94;2085599;28;20045;-70
2022/10/11 04:18:50;;;;;;;0.40;0.40;;;;;;;8.77;80.16;102521.72;2076177;28;20057;-69
2022/10/11 04:19:52;;;;;;;0.40;0.40;;;;;;;8.78;80.69;102531.44;2077001;28;20057;-70
2022/10/11 04:20:55;;;;;;;0.38;0.38;;;;;;;8.78;80.96;102526.84;2085608;28;20065;-69
2022/10/11 04:21:58;;;;;;;0.40;0.40;;;;;;;8.79;80.90;102516.88;2086079;28;20144;-69
2022/10/11 04:23:03;;;;;;;0.40;0.40;;;;;;;8.80;80.08;102519.28;2078105;28;20049;-69
2022/10/11 04:24:07;;;;;;;0.30;0.30;;;;;;;8.82;80.03;102524.38;2078084;28;20405;-70
2022/10/11 04:25:10;;;;;;;0.30;0.30;;;;;;;8.83;80.22;102528.69;2086023;28;20127;-70
2022/10/11 04:26:13;;;;;;;0.40;0.40;;;;;;;8.84;80.49;102527.59;2085309;28;20049;-70
2022/10/11 04:27:16;;;;;;;0.30;0.30;;;;;;;8.86;79.74;102528.13;2075578;28;20615;-71
2022/10/11 04:28:18;;;;;;;0.30;0.30;;;;;;;8.87;80.83;102524.31;2077095;28;20509;-70
2022/10/11 04:29:25;;;;;;;0.50;0.50;;;;;;;8.88;80.32;102531.28;2077188;28;21531;-70
2022/10/11 04:30:33;;;;;;;0.40;0.40;;;;;;;8.88;80.26;102532.09;2071766;28;20045;-70
2022/10/11 04:31:37;;;;;;;0.40;0.40;;;;;;;8.91;80.97;102536.13;2068778;28;20159;-70
2022/10/11 04:32:39;;;;;;;0.35;0.35;;;;;;;8.93;80.34;102536.63;2068756;28;20119;-69
2022/10/11 04:33:42;;;;;;;0.50;0.50;;;;;;;8.94;80.40;102535.56;2078512;28;20060;-70
2022/10/11 04:34:45;;;;;;;0.40;0.40;;;;;;;8.96;80.18;102538.75;2086197;28;20049;-70
2022/10/11 04:35:48;;;;;;;0.43;0.43;;;;;;;8.96;80.23;102536.84;2085927;28;20053;-69
2022/10/11 04:36:53;;;;;;;0.40;0.40;;;;;;;9.00;80.55;102534.41;2076219;28;20053;-70
2022/10/11 04:37:56;;;;;;;0.40;0.40;;;;;;;9.01;80.13;102538.69;2068104;28;20542;-70
2022/10/11 04:39:00;;;;;;;0.38;0.38;;;;;;;9.00;80.16;102539.78;2078175;28;20103;-69
2022/10/11 04:40:04;;;;;;;0.30;0.30;;;;;;;9.03;80.34;102544.59;2085424;28;20408;-70
2022/10/11 04:41:07;;;;;;;0.30;0.30;;;;;;;9.02;79.95;102543.00;2077011;28;20465;-67
2022/10/11 04:42:11;;;;;;;0.30;0.30;;;;;;;9.02;80.22;102543.78;2077270;28;20080;-69
2022/10/11 04:43:15;;;;;;;0.40;0.40;;;;;;;9.04;79.84;102543.50;2084669;28;20473;-68
2022/10/11 04:44:18;;;;;;;0.30;0.30;;;;;;;9.03;79.79;102550.78;2076732;28;20139;-70
2022/10/11 04:45:21;;;;;;;0.40;0.40;;;;;;;9.04;80.47;102544.31;2078152;28;20068;-70
2022/10/11 04:46:25;;;;;;;0.50;0.50;;;;;;;9.05;79.88;102542.44;2077101;28;20045;-70
2022/10/11 04:47:27;;;;;;;0.47;0.47;;;;;;;9.06;80.99;102546.72;2069102;28;20426;-69
2022/10/11 04:48:31;;;;;;;0.40;0.40;;;;;;;9.06;80.53;102546.72;2069738;28;20058;-69
2022/10/11 04:49:33;;;;;;;0.40;0.40;;;;;;;9.05;80.25;102545.13;2077009;28;20079;-70
2022/10/11 04:50:37;;;;;;;0.40;0.40;;;;;;;9.05;80.66;102548.59;2083302;28;20048;-69
2022/10/11 04:51:42;;;;;;;0.40;0.40;;;;;;;9.05;80.73;102547.81;2075696;28;20099;-70
2022/10/11 04:52:45;;;;;;;0.40;0.40;;;;;;;9.06;80.01;102557.47;2076883;28;20595;-69
2022/10/11 04:53:48;;;;;;;0.40;0.40;;;;;;;9.05;80.48;102551.28;2086052;28;20123;-69
2022/10/11 04:54:53;;;;;;;0.40;0.40;;;;;;;9.07;80.18;102556.38;2086428;28;20053;-69
2022/10/11 04:55:57;;;;;;;0.40;0.40;;;;;;;9.06;80.63;102552.09;2076984;28;20081;-68
2022/10/11 04:57:00;;;;;;;0.30;0.30;;;;;;;9.06;80.22;102554.78;2077629;28;20049;-69
2022/10/11 04:58:03;;;;;;;0.35;0.35;;;;;;;9.07;81.31;102556.38;2085794;28;20049;-68
2022/10/11 04:59:06;;;;;;;0.40;0.40;;;;;;;9.06;80.93;102555.59;2086223;28;20118;-68
2022/10/11 05:00:09;;;;;;;0.40;0.40;;;;;;;9.08;80.56;102560.69;2077053;28;20579;-68
2022/10/11 05:01:13;;;;;;;0.40;0.40;;;;;;;9.07;80.82;102551.00;2076957;28;20099;-68
2022/10/11 05:02:16;;;;;;;0.40;0.40;;;;;;;9.08;80.91;102553.41;2085473;28;20045;-69
2022/10/11 05:03:19;;;;;;;0.40;0.40;;;;;;;9.07;81.14;102553.69;2086555;28;20493;-69
2022/10/11 05:04:23;;;;;;;0.40;0.40;;;;;;;9.07;81.05;102553.69;2086016;28;20048;-69
2022/10/11 05:05:27;;;;;;;0.40;0.40;;;;;;;9.06;80.93;102546.72;2085670;28;20118;-68
2022/10/11 05:06:29;;;;;;;0.40;0.40;;;;;;;9.06;81.59;102549.41;2076764;28;20053;-68
2022/10/11 05:07:32;;;;;;;0.40;0.40;;;;;;;9.04;80.05;102557.78;2065766;28;20639;-69
2022/10/11 05:08:34;;;;;;;0.40;0.40;;;;;;;9.04;81.52;102563.16;2069942;28;21011;-69
2022/10/11 05:09:38;;;;;;;0.40;0.40;;;;;;;9.03;81.66;102566.97;2084450;28;20891;-68
2022/10/11 05:10:42;;;;;;;0.40;0.40;;;;;;;9.02;81.17;102559.16;2086355;28;20060;-68